createdAt,value
2017-12-14T00:01:23.799Z,5.40
2017-12-14T00:03:51.261Z,8.18
2017-12-14T00:06:18.725Z,4.80
2017-12-14T00:08:46.173Z,6.97
2017-12-14T00:11:13.652Z,6.18
2017-12-14T00:13:41.106Z,7.55
2017-12-14T00:16:08.576Z,5.10
2017-12-14T00:18:36.066Z,5.18
2017-12-14T00:21:03.533Z,8.05
2017-12-14T00:23:30.994Z,10.35
2017-12-14T00:25:58.457Z,5.43
2017-12-14T00:28:25.920Z,6.05
2017-12-14T00:30:53.383Z,5.22
2017-12-14T00:33:20.840Z,5.20
2017-12-14T00:35:48.291Z,11.98
2017-12-14T00:38:15.733Z,7.57
2017-12-14T00:40:43.184Z,6.28
2017-12-14T00:43:10.652Z,6.10
2017-12-14T00:45:39.558Z,5.25
2017-12-14T00:48:07.032Z,5.43
2017-12-14T00:50:34.533Z,5.75
2017-12-14T00:53:01.999Z,5.00
2017-12-14T00:55:29.481Z,5.15
2017-12-14T00:57:56.947Z,7.50
2017-12-14T01:00:24.393Z,8.77
2017-12-14T01:02:51.973Z,5.12
2017-12-14T01:05:19.422Z,11.93
2017-12-14T01:07:46.883Z,9.45
2017-12-14T01:10:14.353Z,4.97
2017-12-14T01:12:41.816Z,17.30
2017-12-14T01:15:09.284Z,5.80
2017-12-14T01:17:36.744Z,4.68
2017-12-14T01:20:04.226Z,13.60
2017-12-14T01:22:31.695Z,6.32
2017-12-14T01:24:59.157Z,6.60
2017-12-14T01:27:26.605Z,4.03
2017-12-14T01:29:54.074Z,3.85
2017-12-14T01:32:21.543Z,7.28
2017-12-14T01:34:48.992Z,4.30
2017-12-14T01:37:16.479Z,8.68
2017-12-14T01:39:43.947Z,45.38
2017-12-14T01:42:11.405Z,28.15
2017-12-14T01:44:38.898Z,7.18
2017-12-14T01:47:06.376Z,9.02
2017-12-14T01:49:33.847Z,7.70
2017-12-14T01:52:01.317Z,5.45
2017-12-14T01:54:28.768Z,3.20
2017-12-14T01:56:56.211Z,9.68
2017-12-14T01:59:23.687Z,6.57
2017-12-14T02:01:51.149Z,2.75
2017-12-14T02:04:18.594Z,3.12
2017-12-14T02:06:46.053Z,3.35
2017-12-14T02:09:13.512Z,3.40
2017-12-14T02:11:40.980Z,3.92
2017-12-14T02:14:08.467Z,3.10
2017-12-14T02:16:35.918Z,3.28
2017-12-14T02:19:03.374Z,4.40
2017-12-14T02:21:30.851Z,5.40
2017-12-14T02:23:58.296Z,3.12
2017-12-14T02:26:25.767Z,3.47
2017-12-14T02:28:53.243Z,3.55
2017-12-14T02:31:20.723Z,4.68
2017-12-14T02:33:48.204Z,3.28
2017-12-14T02:36:15.664Z,4.85
2017-12-14T02:38:43.148Z,3.28
2017-12-14T02:41:10.597Z,5.97
2017-12-14T02:43:38.064Z,8.13
2017-12-14T02:46:05.525Z,7.57
2017-12-14T02:48:32.981Z,3.35
2017-12-14T02:51:00.448Z,5.12
2017-12-14T02:53:27.923Z,2.87
2017-12-14T02:55:55.407Z,4.30
2017-12-14T02:58:22.895Z,4.90
2017-12-14T03:00:50.381Z,3.00
2017-12-14T03:03:17.841Z,3.40
2017-12-14T03:05:45.284Z,3.70
2017-12-14T03:08:12.776Z,4.72
2017-12-14T03:10:40.257Z,11.43
2017-12-14T03:13:07.724Z,17.85
2017-12-14T03:15:35.193Z,9.07
2017-12-14T03:18:02.663Z,5.37
2017-12-14T03:20:30.135Z,3.55
2017-12-14T03:22:57.611Z,3.85
2017-12-14T03:25:25.075Z,3.33
2017-12-14T03:27:52.560Z,4.43
2017-12-14T03:30:20.026Z,4.25
2017-12-14T03:32:47.492Z,3.50
2017-12-14T03:35:14.976Z,5.53
2017-12-14T03:37:42.434Z,3.30
2017-12-14T03:40:09.892Z,3.10
2017-12-14T03:42:37.371Z,3.12
2017-12-14T03:45:04.832Z,4.57
2017-12-14T03:47:32.312Z,3.30
2017-12-14T03:49:59.776Z,3.33
2017-12-14T03:52:27.262Z,5.05
2017-12-14T03:54:54.748Z,3.10
2017-12-14T03:57:22.201Z,4.35
2017-12-14T03:59:49.692Z,8.52
2017-12-14T04:02:17.166Z,4.57
2017-12-14T04:04:44.635Z,3.78
2017-12-14T04:07:12.101Z,3.60
2017-12-14T04:09:39.554Z,3.20
2017-12-14T04:12:07.015Z,3.55
2017-12-14T04:14:34.469Z,3.50
2017-12-14T04:17:01.925Z,2.90
2017-12-14T04:19:29.395Z,3.50
2017-12-14T04:21:56.883Z,2.92
2017-12-14T04:24:24.355Z,3.15
2017-12-14T04:26:51.824Z,6.10
2017-12-14T04:29:19.300Z,3.28
2017-12-14T04:31:46.748Z,4.05
2017-12-14T04:34:14.211Z,2.75
2017-12-14T04:36:41.672Z,2.80
2017-12-14T04:39:09.116Z,4.20
2017-12-14T04:41:36.562Z,3.20
2017-12-14T04:44:04.028Z,3.80
2017-12-14T04:46:31.480Z,3.10
2017-12-14T04:48:58.942Z,4.97
2017-12-14T04:51:26.408Z,5.40
2017-12-14T04:53:53.875Z,3.50
2017-12-14T04:56:21.323Z,6.05
2017-12-14T04:58:48.783Z,11.68
2017-12-14T05:01:16.251Z,6.78
2017-12-14T05:03:43.696Z,3.50
2017-12-14T05:06:11.176Z,4.57
2017-12-14T05:08:38.625Z,3.85
2017-12-14T05:11:06.091Z,6.60
2017-12-14T05:13:33.567Z,3.90
2017-12-14T05:16:01.031Z,9.63
2017-12-14T05:18:28.472Z,4.47
2017-12-14T05:20:55.934Z,5.37
2017-12-14T05:23:23.400Z,3.50
2017-12-14T05:25:50.868Z,3.40
2017-12-14T05:28:18.391Z,3.30
2017-12-14T05:30:45.835Z,3.40
2017-12-14T05:33:13.281Z,4.00
2017-12-14T05:35:40.747Z,4.30
2017-12-14T05:38:08.211Z,3.83
2017-12-14T05:40:35.695Z,4.20
2017-12-14T05:43:03.162Z,6.47
2017-12-14T05:45:30.631Z,3.78
2017-12-14T05:47:58.099Z,5.62
2017-12-14T05:50:25.569Z,4.45
2017-12-14T05:52:53.036Z,7.97
2017-12-14T05:55:20.493Z,17.87
2017-12-14T05:57:47.949Z,4.00
2017-12-14T06:00:15.388Z,5.62
2017-12-14T06:02:42.850Z,4.43
2017-12-14T06:05:10.323Z,8.82
2017-12-14T06:07:37.769Z,9.23
2017-12-14T06:10:05.211Z,6.62
2017-12-14T06:12:32.672Z,9.05
2017-12-14T06:15:00.134Z,11.75
2017-12-14T06:17:27.600Z,9.60
2017-12-14T06:19:55.053Z,3.75
2017-12-14T06:22:22.545Z,7.62
2017-12-14T06:24:49.980Z,10.75
2017-12-14T06:27:17.450Z,8.02
2017-12-14T06:29:44.912Z,4.45
2017-12-14T06:32:12.364Z,14.95
2017-12-14T06:34:39.843Z,12.00
2017-12-14T06:37:07.308Z,6.97
2017-12-14T06:39:34.756Z,9.93
2017-12-14T06:42:02.227Z,8.75
2017-12-14T06:44:29.680Z,9.05
2017-12-14T06:46:57.136Z,6.20
2017-12-14T06:49:24.617Z,10.40
2017-12-14T06:51:52.060Z,9.32
2017-12-14T06:54:19.620Z,14.68
2017-12-14T06:56:47.098Z,10.35
2017-12-14T06:59:14.549Z,6.93
2017-12-14T07:01:42.015Z,8.88
2017-12-14T07:04:09.482Z,18.10
2017-12-14T07:06:36.929Z,15.80
2017-12-14T07:09:04.400Z,8.73
2017-12-14T07:11:31.856Z,12.63
2017-12-14T07:13:59.324Z,9.88
2017-12-14T07:16:26.784Z,7.93
2017-12-14T07:18:54.236Z,9.02
2017-12-14T07:21:21.701Z,7.12
2017-12-14T07:23:49.175Z,15.63
2017-12-14T07:26:16.651Z,8.48
2017-12-14T07:28:44.122Z,17.52
2017-12-14T07:31:11.582Z,14.05
2017-12-14T07:33:39.041Z,12.35
2017-12-14T07:36:06.485Z,15.52
2017-12-14T07:38:33.955Z,16.50
2017-12-14T07:41:01.432Z,29.80
2017-12-14T07:43:28.884Z,18.80
2017-12-14T07:46:08.228Z,13.52
2017-12-14T07:48:35.694Z,14.63
2017-12-14T07:51:03.144Z,11.12
2017-12-14T07:53:30.605Z,8.88
2017-12-14T07:55:58.059Z,17.45
2017-12-14T07:58:25.520Z,13.50
2017-12-14T08:00:53.052Z,15.60
2017-12-14T08:03:20.478Z,17.65
2017-12-14T08:05:47.948Z,23.83
2017-12-14T08:08:15.418Z,10.55
2017-12-14T08:10:42.869Z,13.73
2017-12-14T08:13:10.307Z,25.90
2017-12-14T08:15:37.782Z,6.78
2017-12-14T08:18:05.237Z,16.60
2017-12-14T08:20:32.693Z,16.62
2017-12-14T08:23:00.184Z,15.80
2017-12-14T08:25:27.651Z,13.82
2017-12-14T08:27:55.124Z,10.68
2017-12-14T08:30:22.616Z,12.60
2017-12-14T08:32:50.066Z,14.05
2017-12-14T08:35:17.538Z,22.52
2017-12-14T08:37:45.007Z,19.80
2017-12-14T08:40:12.487Z,13.95
2017-12-14T08:42:39.950Z,7.15
2017-12-14T08:45:07.429Z,19.52
2017-12-14T08:47:34.904Z,23.23
2017-12-14T08:50:02.376Z,21.80
2017-12-14T08:52:29.845Z,15.40
2017-12-14T08:54:57.311Z,15.52
2017-12-14T08:57:24.774Z,25.33
2017-12-14T08:59:52.256Z,14.87
2017-12-14T09:02:19.700Z,17.12
2017-12-14T09:04:47.184Z,14.85
2017-12-14T09:07:14.624Z,9.13
2017-12-14T09:09:42.090Z,17.55
2017-12-14T09:12:09.560Z,20.58
2017-12-14T09:14:37.045Z,10.65
2017-12-14T09:17:04.519Z,10.30
2017-12-14T09:19:31.993Z,10.40
2017-12-14T09:21:59.515Z,18.10
2017-12-14T09:24:26.995Z,16.52
2017-12-14T09:26:54.456Z,8.98
2017-12-14T09:29:21.936Z,24.35
2017-12-14T09:31:49.402Z,10.65
2017-12-14T09:34:16.853Z,10.18
2017-12-14T09:36:44.331Z,15.98
2017-12-14T09:39:11.791Z,6.20
2017-12-14T09:41:39.242Z,17.30
2017-12-14T09:44:06.731Z,10.20
2017-12-14T09:46:34.199Z,14.27
2017-12-14T09:49:01.657Z,8.15
2017-12-14T09:51:29.143Z,14.63
2017-12-14T09:53:56.606Z,20.10
2017-12-14T09:56:24.071Z,11.02
2017-12-14T09:58:51.539Z,12.35
2017-12-14T10:01:19.012Z,19.27
2017-12-14T10:03:46.460Z,19.50
2017-12-14T10:06:13.948Z,13.05
2017-12-14T10:08:41.422Z,10.27
2017-12-14T10:11:08.899Z,17.40
2017-12-14T10:13:36.364Z,11.88
2017-12-14T10:16:04.580Z,12.30
2017-12-14T10:18:32.042Z,22.70
2017-12-14T10:20:59.530Z,10.57
2017-12-14T10:23:26.984Z,21.42
2017-12-14T10:25:54.447Z,13.10
2017-12-14T10:28:22.245Z,8.85
2017-12-14T10:30:49.711Z,9.27
2017-12-14T10:33:17.180Z,16.08
2017-12-14T10:35:44.665Z,16.37
2017-12-14T10:38:12.139Z,16.17
2017-12-14T10:40:39.600Z,11.77
2017-12-14T10:43:07.079Z,20.52
2017-12-14T10:45:34.539Z,23.40
2017-12-14T10:48:01.984Z,5.68
2017-12-14T10:50:29.439Z,8.45
2017-12-14T10:52:56.925Z,9.60
2017-12-14T10:55:24.381Z,9.50
2017-12-14T10:57:51.870Z,11.73
2017-12-14T11:00:19.324Z,26.33
2017-12-14T11:02:46.783Z,8.43
2017-12-14T11:05:14.265Z,15.88
2017-12-14T11:07:41.717Z,19.12
2017-12-14T11:10:09.165Z,7.57
2017-12-14T11:12:36.627Z,12.93
2017-12-14T11:15:04.086Z,14.23
2017-12-14T11:17:31.541Z,5.55
2017-12-14T11:19:59.022Z,9.32
2017-12-14T11:22:26.485Z,21.30
2017-12-14T11:24:53.955Z,13.62
2017-12-14T11:27:21.440Z,13.10
2017-12-14T11:29:48.908Z,9.27
2017-12-14T11:32:16.360Z,18.62
2017-12-14T11:34:45.458Z,20.98
2017-12-14T11:37:12.910Z,8.05
2017-12-14T11:39:40.361Z,16.90
2017-12-14T11:42:07.848Z,14.93
2017-12-14T11:44:35.328Z,15.40
2017-12-14T11:47:02.856Z,12.02
2017-12-14T11:49:30.320Z,12.48
2017-12-14T11:51:57.796Z,16.20
2017-12-14T11:54:25.263Z,12.37
2017-12-14T11:56:52.758Z,11.57
2017-12-14T11:59:20.227Z,19.98
2017-12-14T12:01:47.676Z,12.73
2017-12-14T12:04:15.163Z,12.50
2017-12-14T12:06:42.617Z,9.43
2017-12-14T12:09:10.087Z,32.72
2017-12-14T12:11:37.555Z,17.47
2017-12-14T12:14:05.015Z,17.83
2017-12-14T12:16:32.461Z,11.10
2017-12-14T12:18:59.952Z,17.80
2017-12-14T12:21:27.414Z,17.10
2017-12-14T12:23:54.873Z,12.63
2017-12-14T12:26:22.345Z,17.37
2017-12-14T12:28:49.854Z,13.98
2017-12-14T12:31:17.310Z,29.25
2017-12-14T12:33:44.797Z,15.85
2017-12-14T12:36:12.267Z,14.68
2017-12-14T12:38:39.713Z,19.65
2017-12-14T12:41:07.199Z,13.98
2017-12-14T12:43:34.667Z,12.32
2017-12-14T12:46:02.144Z,17.12
2017-12-14T12:48:29.627Z,11.40
2017-12-14T12:50:57.084Z,25.92
2017-12-14T12:53:24.648Z,10.85
2017-12-14T12:55:52.108Z,11.50
2017-12-14T12:58:19.577Z,14.35
2017-12-14T13:00:47.054Z,11.07
2017-12-14T13:03:14.524Z,15.95
2017-12-14T13:05:41.977Z,19.37
2017-12-14T13:08:09.439Z,17.12
2017-12-14T13:10:36.919Z,8.40
2017-12-14T13:13:04.373Z,21.80
2017-12-14T13:15:31.825Z,13.40
2017-12-14T13:17:59.294Z,12.52
2017-12-14T13:20:26.772Z,27.58
2017-12-14T13:22:54.238Z,17.67
2017-12-14T13:25:21.727Z,18.05
2017-12-14T13:27:49.177Z,7.45
2017-12-14T13:30:16.639Z,9.40
2017-12-14T13:32:44.125Z,9.57
2017-12-14T13:35:11.620Z,16.25
2017-12-14T13:37:39.089Z,19.40
2017-12-14T13:40:06.652Z,19.73
2017-12-14T13:42:34.104Z,24.25
2017-12-14T13:45:01.567Z,32.63
2017-12-14T13:47:29.044Z,14.90
2017-12-14T13:49:56.497Z,9.45
2017-12-14T13:52:23.953Z,11.52
2017-12-14T13:54:51.590Z,14.38
2017-12-14T13:57:19.084Z,18.48
2017-12-14T13:59:46.545Z,40.75
2017-12-14T14:02:14.017Z,13.43
2017-12-14T14:04:41.473Z,18.00
2017-12-14T14:07:08.936Z,9.02
2017-12-14T14:09:37.213Z,26.48
2017-12-14T14:12:04.668Z,13.18
2017-12-14T14:14:32.956Z,9.90
2017-12-14T14:17:00.421Z,12.82
2017-12-14T14:19:27.869Z,16.15
2017-12-14T14:21:55.321Z,21.37
2017-12-14T14:24:23.236Z,20.23
2017-12-14T14:26:50.788Z,14.45
2017-12-14T14:29:18.248Z,21.15
2017-12-14T14:31:45.721Z,22.27
2017-12-14T14:34:13.210Z,25.77
2017-12-14T14:36:40.668Z,19.52
2017-12-14T14:39:08.134Z,11.50
2017-12-14T14:41:35.586Z,10.85
2017-12-14T14:44:03.172Z,17.48
2017-12-14T14:46:30.635Z,21.10
2017-12-14T14:48:58.100Z,24.42
2017-12-14T14:51:25.615Z,19.95
2017-12-14T14:53:53.075Z,20.55
2017-12-14T14:56:20.528Z,14.10
2017-12-14T14:58:48.001Z,9.63
2017-12-14T15:01:15.457Z,20.80
2017-12-14T15:03:42.913Z,17.23
2017-12-14T15:06:10.382Z,17.20
2017-12-14T15:08:37.840Z,23.52
2017-12-14T15:11:05.300Z,28.05
2017-12-14T15:13:32.881Z,17.92
2017-12-14T15:16:00.360Z,10.73
2017-12-14T15:18:27.808Z,11.25
2017-12-14T15:20:55.257Z,23.75
2017-12-14T15:23:22.728Z,19.90
2017-12-14T15:25:50.242Z,12.57
2017-12-14T15:28:17.693Z,17.92
2017-12-14T15:30:45.155Z,15.05
2017-12-14T15:33:12.601Z,17.58
2017-12-14T15:35:40.049Z,20.40
2017-12-14T15:38:07.512Z,11.02
2017-12-14T15:40:34.965Z,16.37
2017-12-14T15:43:02.416Z,15.98
2017-12-14T15:45:29.876Z,22.50
2017-12-14T15:47:57.324Z,20.45
2017-12-14T15:50:24.778Z,11.27
2017-12-14T15:52:52.244Z,19.95
2017-12-14T15:55:19.692Z,18.87
2017-12-14T15:57:47.141Z,13.73
2017-12-14T16:00:14.596Z,15.77
2017-12-14T16:02:42.048Z,15.68
2017-12-14T16:05:09.496Z,17.52
2017-12-14T16:07:36.963Z,15.10
2017-12-14T16:10:04.412Z,33.38
2017-12-14T16:12:31.860Z,10.30
2017-12-14T16:14:59.325Z,16.98
2017-12-14T16:17:26.878Z,26.05
2017-12-14T16:19:54.911Z,34.00
2017-12-14T16:22:22.377Z,24.50
2017-12-14T16:24:49.825Z,22.85
2017-12-14T16:27:17.289Z,22.52
2017-12-14T16:29:44.737Z,24.10
2017-12-14T16:32:12.195Z,21.27
2017-12-14T16:34:39.660Z,15.30
2017-12-14T16:37:07.104Z,16.33
2017-12-14T16:39:34.558Z,19.17
2017-12-14T16:42:02.022Z,17.25
2017-12-14T16:44:29.472Z,15.18
2017-12-14T16:46:56.924Z,18.52
2017-12-14T16:49:24.378Z,17.10
2017-12-14T16:51:51.832Z,17.50
2017-12-14T16:54:19.298Z,13.32
2017-12-14T16:56:46.761Z,25.48
2017-12-14T16:59:14.225Z,17.20
2017-12-14T17:01:41.696Z,20.55
2017-12-14T17:04:09.162Z,11.88
2017-12-14T17:06:36.632Z,26.02
2017-12-14T17:09:04.601Z,25.58
2017-12-14T17:11:32.189Z,19.33
2017-12-14T17:13:59.662Z,18.15
2017-12-14T17:16:27.120Z,21.62
2017-12-14T17:18:54.583Z,16.75
2017-12-14T17:21:22.039Z,15.60
2017-12-14T17:23:49.497Z,19.30
2017-12-14T17:26:16.978Z,12.60
2017-12-14T17:28:44.432Z,22.58
2017-12-14T17:31:11.888Z,13.65
2017-12-14T17:33:39.344Z,20.83
2017-12-14T17:36:06.817Z,17.20
2017-12-14T17:38:34.273Z,23.15
2017-12-14T17:41:01.721Z,18.75
2017-12-14T17:43:29.193Z,28.98
2017-12-14T17:45:56.653Z,37.35
2017-12-14T17:48:24.116Z,10.57
2017-12-14T17:50:51.576Z,16.25
2017-12-14T17:53:19.031Z,37.75
2017-12-14T17:55:46.497Z,35.55
2017-12-14T17:58:13.942Z,34.78
2017-12-14T18:00:41.397Z,22.60
2017-12-14T18:03:08.860Z,20.67
2017-12-14T18:05:36.320Z,22.75
2017-12-14T18:08:03.777Z,13.05
2017-12-14T18:10:31.245Z,20.33
2017-12-14T18:12:58.705Z,45.92
2017-12-14T18:15:26.157Z,22.40
2017-12-14T18:17:53.621Z,37.80
2017-12-14T18:20:21.083Z,20.05
2017-12-14T18:22:48.550Z,35.40
2017-12-14T18:25:16.029Z,49.47
2017-12-14T18:27:43.479Z,30.50
2017-12-14T18:30:10.941Z,27.62
2017-12-14T18:32:38.425Z,23.33
2017-12-14T18:35:05.877Z,30.40
2017-12-14T18:37:33.341Z,30.00
2017-12-14T18:40:00.845Z,31.37
2017-12-14T18:42:28.288Z,35.10
2017-12-14T18:44:55.741Z,12.18
2017-12-14T18:47:23.220Z,41.05
2017-12-14T18:49:50.669Z,19.98
2017-12-14T18:52:18.120Z,11.55
2017-12-14T18:54:45.589Z,17.83
2017-12-14T18:57:13.049Z,24.33
2017-12-14T18:59:40.514Z,19.55
2017-12-14T19:02:07.984Z,14.65
2017-12-14T19:04:35.445Z,17.35
2017-12-14T19:07:02.914Z,10.52
2017-12-14T19:09:30.393Z,14.73
2017-12-14T19:11:57.854Z,8.02
2017-12-14T19:14:25.323Z,11.12
2017-12-14T19:16:52.793Z,24.92
2017-12-14T19:19:20.249Z,11.00
2017-12-14T19:21:47.705Z,18.45
2017-12-14T19:24:15.181Z,16.27
2017-12-14T19:26:42.621Z,8.55
2017-12-14T19:29:10.068Z,10.02
2017-12-14T19:31:37.534Z,13.68
2017-12-14T19:34:04.980Z,11.10
2017-12-14T19:36:32.441Z,19.58
2017-12-14T19:38:59.918Z,15.35
2017-12-14T19:41:27.373Z,6.10
2017-12-14T19:43:54.831Z,12.13
2017-12-14T19:46:22.300Z,18.85
2017-12-14T19:48:49.752Z,20.05
2017-12-14T19:51:17.207Z,17.20
2017-12-14T19:53:44.755Z,16.83
2017-12-14T19:56:12.238Z,10.55
2017-12-14T19:58:39.897Z,6.40
2017-12-14T20:01:07.406Z,5.40
2017-12-14T20:03:34.899Z,12.10
2017-12-14T20:06:02.371Z,5.40
2017-12-14T20:08:29.867Z,4.85
2017-12-14T20:10:57.320Z,5.47
2017-12-14T20:13:24.784Z,4.53
2017-12-14T20:15:52.295Z,5.05
2017-12-14T20:18:19.777Z,5.75
2017-12-14T20:20:47.284Z,5.10
2017-12-14T20:23:14.831Z,7.62
2017-12-14T20:25:42.353Z,6.80
2017-12-14T20:28:10.025Z,6.15
2017-12-14T20:30:37.563Z,4.97
2017-12-14T20:33:05.027Z,8.35
2017-12-14T20:35:32.497Z,6.80
2017-12-14T20:37:59.992Z,4.85
2017-12-14T20:40:27.445Z,6.12
2017-12-14T20:42:54.904Z,5.00
2017-12-14T20:45:22.433Z,5.53
2017-12-14T20:47:49.946Z,5.78
2017-12-14T20:50:17.421Z,23.30
2017-12-14T20:52:44.888Z,11.73
2017-12-14T20:55:12.346Z,8.10
2017-12-14T20:57:39.811Z,5.97
2017-12-14T21:00:07.271Z,8.48
2017-12-14T21:02:34.720Z,7.62
2017-12-14T21:05:02.169Z,7.35
2017-12-14T21:07:29.638Z,20.15
2017-12-14T21:09:57.086Z,9.90
2017-12-14T21:12:24.534Z,9.82
2017-12-14T21:14:52.022Z,11.20
2017-12-14T21:17:19.480Z,8.90
2017-12-14T21:19:46.932Z,10.82
2017-12-14T21:22:14.389Z,8.07
2017-12-14T21:24:41.841Z,8.45
2017-12-14T21:27:09.284Z,8.43
2017-12-14T21:29:36.744Z,12.23
2017-12-14T21:32:04.228Z,7.30
2017-12-14T21:34:31.673Z,9.05
2017-12-14T21:36:59.141Z,5.37
2017-12-14T21:39:26.610Z,4.10
2017-12-14T21:41:54.052Z,4.65
2017-12-14T21:44:21.521Z,10.25
2017-12-14T21:46:48.964Z,5.07
2017-12-14T21:49:16.420Z,6.32
2017-12-14T21:51:43.881Z,4.45
2017-12-14T21:54:11.325Z,4.68
2017-12-14T21:56:38.771Z,4.90
2017-12-14T21:59:14.557Z,5.12
2017-12-14T22:01:42.010Z,4.45
2017-12-14T22:04:09.456Z,4.78
2017-12-14T22:06:36.929Z,5.95
2017-12-14T22:09:04.385Z,5.47
2017-12-14T22:11:31.834Z,5.20
2017-12-14T22:13:59.302Z,4.50
2017-12-14T22:16:26.766Z,4.93
2017-12-14T22:18:54.222Z,5.43
2017-12-14T22:21:21.684Z,5.10
2017-12-14T22:23:49.098Z,4.70
2017-12-14T22:26:16.580Z,6.37
2017-12-14T22:28:44.045Z,4.97
2017-12-14T22:31:11.497Z,5.35
2017-12-14T22:33:38.945Z,5.97
2017-12-14T22:36:06.400Z,4.80
2017-12-14T22:38:33.841Z,5.07
2017-12-14T22:41:01.285Z,4.87
2017-12-14T22:43:28.752Z,4.70
2017-12-14T22:45:56.200Z,4.10
2017-12-14T22:48:23.649Z,5.30
2017-12-14T22:50:51.117Z,4.40
2017-12-14T22:53:19.101Z,7.75
2017-12-14T22:55:46.549Z,6.53
2017-12-14T22:58:14.023Z,4.60
2017-12-14T23:00:41.482Z,4.97
2017-12-14T23:03:08.927Z,4.78
2017-12-14T23:05:36.393Z,6.35
2017-12-14T23:08:03.845Z,4.68
2017-12-14T23:10:31.297Z,4.75
2017-12-14T23:12:58.760Z,4.72
2017-12-14T23:15:26.208Z,5.10
2017-12-14T23:17:53.662Z,4.90
2017-12-14T23:20:21.121Z,4.20
2017-12-14T23:22:48.573Z,4.57
2017-12-14T23:25:16.021Z,4.80
2017-12-14T23:27:43.494Z,5.05
2017-12-14T23:30:10.946Z,4.45
2017-12-14T23:32:38.396Z,4.82
2017-12-14T23:35:05.861Z,4.40
2017-12-14T23:37:33.313Z,4.50
2017-12-14T23:40:00.766Z,4.65
2017-12-14T23:42:28.247Z,4.65
2017-12-14T23:44:55.698Z,4.05
2017-12-14T23:47:23.149Z,4.03
2017-12-14T23:49:50.625Z,4.50
2017-12-14T23:52:18.081Z,4.35
2017-12-14T23:54:45.534Z,4.15
2017-12-14T23:57:12.993Z,5.07
2017-12-14T23:59:40.455Z,4.57
